Time;durP1;ratioP1;P1;durP2;ratioP2;P2;SDS_P1;SDS_P2;PMS_P1;PMS_P2;Temp;Humidity;BMP_temperature;BMP_pressure;BME280_temperature;BME280_humidity;BME280_pressure;Samples;Min_cycle;Max_cycle;Signal;HPM_P1;HPM_P2
2022/08/22 00:00:51;;;;;;;22.08;3.78;;;;;;;;;;6180488;23;20025;-55
2022/08/22 00:03:34;;;;;;;16.58;3.80;;;;;;;;;;6179711;23;20562;-60
2022/08/22 00:06:16;;;;;;;21.13;3.35;;;;;;;;;;6179754;23;20024;-61
2022/08/22 00:08:46;;;;;;;21.17;3.47;;;;;;;;;;6179880;23;20490;-60
2022/08/22 00:11:25;;;;;;;21.50;3.25;;;;;;;;;;6180037;23;20025;-61
2022/08/22 00:13:59;;;;;;;13.38;2.95;;;;;;;;;;6178560;23;20025;-61
2022/08/22 00:16:33;;;;;;;16.65;2.90;;;;;;;;;;6179790;23;20485;-52
2022/08/22 00:19:11;;;;;;;19.23;3.25;;;;;;;;;;6179085;23;20356;-56
2022/08/22 00:21:52;;;;;;;19.70;3.28;;;;;;;;;;6179438;23;20071;-57
2022/08/22 00:24:28;;;;;;;20.48;3.58;;;;;;;;;;6180047;23;20021;-56
2022/08/22 00:27:12;;;;;;;19.00;3.30;;;;;;;;;;6179286;23;20404;-57
2022/08/22 00:29:41;;;;;;;20.08;3.40;;;;;;;;;;6180472;23;20021;-58
2022/08/22 00:32:17;;;;;;;;;;;;;;;;;;6179379;23;20466;-58
2022/08/22 00:34:58;;;;;;;24.88;4.03;;;;;;;;;;6180167;23;20377;-57
2022/08/22 00:37:44;;;;;;;22.83;3.23;;;;;;;;;;6178489;23;20029;-51
2022/08/22 00:40:30;;;;;;;31.52;3.88;;;;;;;;;;6179490;23;20248;-55
2022/08/22 00:43:16;;;;;;;17.90;2.97;;;;;;;;;;6179456;23;20087;-56
2022/08/22 00:46:09;;;;;;;20.08;3.20;;;;;;;;;;6179692;23;20048;-53
2022/08/22 00:49:01;;;;;;;17.45;3.00;;;;;;;;;;6179547;23;20025;-55
2022/08/22 00:51:51;;;;;;;16.20;2.65;;;;;;;;;;6179119;23;20462;-52
2022/08/22 00:54:27;;;;;;;19.33;4.22;;;;;;;;;;6179003;23;20028;-67
2022/08/22 00:57:02;;;;;;;20.63;2.75;;;;;;;;;;6178736;23;20025;-53
2022/08/22 00:59:51;;;;;;;17.13;3.05;;;;;;;;;;6180494;23;20033;-61
2022/08/22 01:02:31;;;;;;;22.98;3.42;;;;;;;;;;6179558;23;20028;-61
2022/08/22 01:05:23;;;;;;;16.95;2.85;;;;;;;;;;6178168;23;20032;-61
2022/08/22 01:07:56;;;;;;;18.13;3.63;;;;;;;;;;6178156;23;20021;-61
2022/08/22 01:10:30;;;;;;;16.60;3.45;;;;;;;;;;6179652;23;20032;-62
2022/08/22 01:13:04;;;;;;;17.05;3.22;;;;;;;;;;6178639;23;20482;-66
2022/08/22 01:15:40;;;;;;;20.02;3.92;;;;;;;;;;6179919;23;20032;-51
2022/08/22 01:18:19;;;;;;;20.52;3.17;;;;;;;;;;6179537;23;20025;-55
2022/08/22 01:21:11;;;;;;;16.65;3.65;;;;;;;;;;6178825;23;20180;-57
2022/08/22 01:23:51;;;;;;;20.13;3.58;;;;;;;;;;6180396;23;20021;-55
2022/08/22 01:26:30;;;;;;;23.77;3.50;;;;;;;;;;6180529;23;20398;-56
2022/08/22 01:29:10;;;;;;;21.75;3.55;;;;;;;;;;6178212;23;20048;-56
2022/08/22 01:32:14;;;;;;;17.40;3.20;;;;;;;;;;6179861;23;20021;-55
2022/08/22 01:34:47;;;;;;;17.13;3.08;;;;;;;;;;6178347;23;20029;-55
2022/08/22 01:37:33;;;;;;;23.50;3.60;;;;;;;;;;6179403;23;20534;-50
2022/08/22 01:40:16;;;;;;;;;;;;;;;;;;6179808;23;20459;-48
2022/08/22 01:43:03;;;;;;;24.25;3.20;;;;;;;;;;6178698;23;20397;-48
2022/08/22 01:45:30;;;;;;;13.48;2.95;;;;;;;;;;6180047;23;20471;-47
2022/08/22 01:48:24;;;;;;;19.85;3.15;;;;;;;;;;6178516;23;20039;-48
2022/08/22 01:50:55;;;;;;;13.38;3.10;;;;;;;;;;6180000;23;20071;-46
2022/08/22 01:53:40;;;;;;;16.95;3.40;;;;;;;;;;6181609;23;20025;-66
2022/08/22 01:56:22;;;;;;;22.23;3.83;;;;;;;;;;6181121;23;20021;-49
2022/08/22 01:59:01;;;;;;;17.20;3.38;;;;;;;;;;6179730;23;20095;-52
2022/08/22 02:01:38;;;;;;;29.58;3.88;;;;;;;;;;6181778;23;20025;-53
2022/08/22 02:04:15;;;;;;;26.33;3.78;;;;;;;;;;6179966;23;20033;-52
2022/08/22 02:06:57;;;;;;;25.48;3.75;;;;;;;;;;6180567;23;20482;-51
2022/08/22 02:09:49;;;;;;;20.67;3.90;;;;;;;;;;6180890;23;20467;-51
2022/08/22 02:12:30;;;;;;;19.35;3.38;;;;;;;;;;6180718;23;20052;-59
2022/08/22 02:15:23;;;;;;;22.33;3.55;;;;;;;;;;6181047;23;20025;-54
2022/08/22 02:17:58;;;;;;;17.60;3.28;;;;;;;;;;6180609;23;20025;-56
2022/08/22 02:20:43;;;;;;;19.15;3.78;;;;;;;;;;6180476;23;20032;-55
2022/08/22 02:23:24;;;;;;;19.25;3.47;;;;;;;;;;6180622;23;20017;-54
2022/08/22 02:26:01;;;;;;;33.17;3.72;;;;;;;;;;6181167;23;20021;-53
2022/08/22 02:28:31;;;;;;;22.05;3.90;;;;;;;;;;6181161;23;20036;-53
2022/08/22 02:31:25;;;;;;;22.85;4.28;;;;;;;;;;6181070;23;20485;-61
2022/08/22 02:33:56;;;;;;;18.73;3.53;;;;;;;;;;6180088;23;20076;-67
2022/08/22 02:36:30;;;;;;;21.80;4.22;;;;;;;;;;6179971;23;20493;-67
2022/08/22 02:39:12;;;;;;;16.80;3.40;;;;;;;;;;6178880;23;20052;-67
2022/08/22 02:41:49;;;;;;;26.88;3.50;;;;;;;;;;6180241;23;20060;-67
2022/08/22 02:44:24;;;;;;;19.75;3.63;;;;;;;;;;6178203;23;20079;-67
2022/08/22 02:47:10;;;;;;;24.77;3.70;;;;;;;;;;6181246;23;20053;-68
2022/08/22 02:49:53;;;;;;;15.60;3.42;;;;;;;;;;6180564;23;20029;-61
2022/08/22 02:52:41;;;;;;;21.70;3.70;;;;;;;;;;6181619;23;20033;-57
2022/08/22 02:55:15;;;;;;;21.15;4.10;;;;;;;;;;6180668;23;20033;-56
2022/08/22 02:57:52;;;;;;;25.02;4.35;;;;;;;;;;6179375;23;20386;-58
2022/08/22 03:00:23;;;;;;;23.70;4.20;;;;;;;;;;6181402;23;20402;-57
2022/08/22 03:02:59;;;;;;;25.20;4.00;;;;;;;;;;6180138;23;20036;-58
2022/08/22 03:05:40;;;;;;;29.00;4.22;;;;;;;;;;6179797;23;20025;-56
2022/08/22 03:08:27;;;;;;;17.35;4.13;;;;;;;;;;6178073;23;20470;-60
2022/08/22 03:10:55;;;;;;;30.38;5.00;;;;;;;;;;6180012;23;20025;-51
2022/08/22 03:13:36;;;;;;;25.35;4.05;;;;;;;;;;6179212;23;20032;-53
2022/08/22 03:16:06;;;;;;;22.65;4.03;;;;;;;;;;6181249;23;20045;-53
2022/08/22 03:19:01;;;;;;;20.58;3.80;;;;;;;;;;6180836;23;20025;-56
2022/08/22 03:21:43;;;;;;;24.53;4.63;;;;;;;;;;6181295;23;20032;-52
2022/08/22 03:24:17;;;;;;;;;;;;;;;;;;6181667;23;20326;-53
2022/08/22 03:26:44;;;;;;;18.25;3.90;;;;;;;;;;6181083;23;20365;-60
2022/08/22 03:29:16;;;;;;;24.70;4.18;;;;;;;;;;6180927;23;20021;-68
2022/08/22 03:32:05;;;;;;;30.52;5.15;;;;;;;;;;6180295;23;20083;-61
2022/08/22 03:34:33;;;;;;;19.33;3.90;;;;;;;;;;6180126;23;20064;-61
2022/08/22 03:37:16;;;;;;;22.60;4.55;;;;;;;;;;6180152;23;20494;-61
2022/08/22 03:39:58;;;;;;;16.00;3.63;;;;;;;;;;6178441;23;20103;-61
2022/08/22 03:42:44;;;;;;;24.50;4.00;;;;;;;;;;6180672;23;20039;-61
2022/08/22 03:45:12;;;;;;;20.48;4.63;;;;;;;;;;6179666;23;20021;-61
2022/08/22 03:47:59;;;;;;;16.00;3.80;;;;;;;;;;6180231;23;20025;-68
2022/08/22 03:50:46;;;;;;;25.02;4.80;;;;;;;;;;6181337;23;20216;-54
2022/08/22 03:53:59;;;;;;;25.38;4.85;;;;;;;;;;6180928;23;20021;-53
2022/08/22 03:56:49;;;;;;;18.98;4.20;;;;;;;;;;6180049;23;20029;-52
2022/08/22 03:59:53;;;;;;;14.73;3.92;;;;;;;;;;6180604;23;20040;-54
2022/08/22 04:02:52;;;;;;;22.50;4.50;;;;;;;;;;6178207;23;20021;-54
2022/08/22 04:06:04;;;;;;;22.63;4.20;;;;;;;;;;6180874;23;20033;-56
2022/08/22 04:09:03;;;;;;;30.10;4.97;;;;;;;;;;6180221;23;20106;-55
2022/08/22 04:11:58;;;;;;;22.95;4.32;;;;;;;;;;6178022;23;20029;-55
2022/08/22 04:14:56;;;;;;;15.13;3.83;;;;;;;;;;6176484;23;20087;-54
2022/08/22 04:17:55;;;;;;;26.58;4.30;;;;;;;;;;6177786;23;20052;-54
2022/08/22 04:20:43;;;;;;;18.90;4.50;;;;;;;;;;6180510;23;20025;-55
2022/08/22 04:23:56;;;;;;;24.10;3.88;;;;;;;;;;6180557;23;20072;-59
2022/08/22 04:26:52;;;;;;;23.10;4.13;;;;;;;;;;6179478;23;20027;-55
2022/08/22 04:30:08;;;;;;;20.10;3.38;;;;;;;;;;6179461;23;20024;-53
2022/08/22 04:32:55;;;;;;;;;;;;;;;;;;6180473;23;20029;-52
2022/08/22 04:35:58;;;;;;;16.73;3.38;;;;;;;;;;6179304;23;19920;-52
2022/08/22 04:39:07;;;;;;;17.98;3.60;;;;;;;;;;6178801;23;20060;-50
2022/08/22 04:42:13;;;;;;;19.08;3.00;;;;;;;;;;6179795;23;20025;-53
2022/08/22 04:45:02;;;;;;;18.40;3.13;;;;;;;;;;6178047;23;20024;-61
2022/08/22 04:48:15;;;;;;;18.58;2.90;;;;;;;;;;6178751;23;20036;-68
2022/08/22 04:51:21;;;;;;;23.88;3.70;;;;;;;;;;6180418;23;20104;-68
2022/08/22 04:54:21;;;;;;;10.98;2.60;;;;;;;;;;6178793;23;20033;-69
2022/08/22 04:57:15;;;;;;;13.40;3.17;;;;;;;;;;6177396;23;20483;-68
2022/08/22 05:00:12;;;;;;;13.50;3.45;;;;;;;;;;6177092;23;20028;-70
2022/08/22 05:03:01;;;;;;;22.27;3.17;;;;;;;;;;6179394;23;20056;-55
2022/08/22 05:05:55;;;;;;;16.10;3.08;;;;;;;;;;6179474;23;20080;-62
2022/08/22 05:08:44;;;;;;;16.92;2.95;;;;;;;;;;6180535;23;20021;-62
2022/08/22 05:11:44;;;;;;;16.80;3.40;;;;;;;;;;6179900;23;20021;-60
2022/08/22 05:14:36;;;;;;;15.63;3.00;;;;;;;;;;6179180;23;20367;-61
2022/08/22 05:17:33;;;;;;;17.85;3.10;;;;;;;;;;6179918;23;20053;-61
2022/08/22 05:20:22;;;;;;;15.52;3.10;;;;;;;;;;6179409;23;20044;-61
2022/08/22 05:23:20;;;;;;;20.85;3.10;;;;;;;;;;6179606;23;20029;-68
2022/08/22 05:26:07;;;;;;;19.40;3.15;;;;;;;;;;6181394;23;20025;-53
2022/08/22 05:29:03;;;;;;;20.63;3.90;;;;;;;;;;6181629;23;20025;-55
2022/08/22 05:31:56;;;;;;;18.83;3.17;;;;;;;;;;6181373;23;20063;-56
2022/08/22 05:34:50;;;;;;;18.88;2.95;;;;;;;;;;6181765;23;20044;-55
2022/08/22 05:37:49;;;;;;;13.30;2.92;;;;;;;;;;6182071;23;20806;-56
2022/08/22 05:40:53;;;;;;;20.25;3.25;;;;;;;;;;6180111;23;20087;-56
2022/08/22 05:43:47;;;;;;;17.52;3.15;;;;;;;;;;6180699;23;20075;-51
2022/08/22 05:46:43;;;;;;;16.85;2.67;;;;;;;;;;6182294;23;20025;-51
2022/08/22 05:49:30;;;;;;;14.95;2.97;;;;;;;;;;6181523;23;20020;-50
2022/08/22 05:52:31;;;;;;;21.52;3.10;;;;;;;;;;6181669;23;20087;-48
2022/08/22 05:55:24;;;;;;;15.60;2.85;;;;;;;;;;6180454;23;20104;-54
2022/08/22 05:58:23;;;;;;;18.77;3.05;;;;;;;;;;6181284;23;20432;-51
2022/08/22 06:01:13;;;;;;;22.75;2.83;;;;;;;;;;6181101;23;20025;-58
2022/08/22 06:04:18;;;;;;;11.90;2.40;;;;;;;;;;6180917;23;20049;-54
2022/08/22 06:07:08;;;;;;;16.52;2.50;;;;;;;;;;6181861;23;20079;-53
2022/08/22 06:10:05;;;;;;;12.80;2.50;;;;;;;;;;6180540;23;20025;-52
2022/08/22 06:13:05;;;;;;;15.85;2.90;;;;;;;;;;6180988;23;20032;-54
2022/08/22 06:16:05;;;;;;;11.32;2.20;;;;;;;;;;6180872;23;20052;-55
2022/08/22 06:18:53;;;;;;;13.80;2.55;;;;;;;;;;6181752;23;20025;-52
2022/08/22 06:21:49;;;;;;;14.52;2.45;;;;;;;;;;6181253;23;20025;-70
2022/08/22 06:24:40;;;;;;;11.25;2.28;;;;;;;;;;6180736;23;20021;-70
2022/08/22 06:27:35;;;;;;;9.32;2.03;;;;;;;;;;6181756;23;20021;-70
2022/08/22 06:30:24;;;;;;;10.70;2.08;;;;;;;;;;6180506;23;20468;-70
2022/08/22 06:33:21;;;;;;;15.38;2.45;;;;;;;;;;6180700;23;20072;-70
2022/08/22 06:36:30;;;;;;;11.45;2.20;;;;;;;;;;6180876;23;20485;-70
2022/08/22 06:39:40;;;;;;;13.05;2.55;;;;;;;;;;6180195;23;20029;-63
2022/08/22 06:42:37;;;;;;;12.25;2.15;;;;;;;;;;6181631;23;20024;-60
2022/08/22 06:45:31;;;;;;;11.73;2.33;;;;;;;;;;6179969;23;20398;-60
2022/08/22 06:48:21;;;;;;;12.43;2.38;;;;;;;;;;6181142;23;20017;-60
2022/08/22 06:51:17;;;;;;;14.27;2.30;;;;;;;;;;6181458;23;20076;-59
2022/08/22 06:54:06;;;;;;;9.25;1.98;;;;;;;;;;6180381;23;20103;-59
2022/08/22 06:57:01;;;;;;;16.45;2.35;;;;;;;;;;6180999;23;20459;-62
2022/08/22 06:59:51;;;;;;;8.63;2.15;;;;;;;;;;6181170;23;20021;-55
2022/08/22 07:02:48;;;;;;;9.90;1.90;;;;;;;;;;6180332;23;20025;-56
2022/08/22 07:05:37;;;;;;;11.02;2.35;;;;;;;;;;6180373;23;20025;-57
2022/08/22 07:08:32;;;;;;;12.73;2.00;;;;;;;;;;6180998;23;20099;-57
2022/08/22 07:11:28;;;;;;;9.77;2.22;;;;;;;;;;6181046;23;20044;-58
2022/08/22 07:14:31;;;;;;;11.95;2.28;;;;;;;;;;6180819;23;20021;-57
2022/08/22 07:17:22;;;;;;;6.05;1.80;;;;;;;;;;6180868;23;20024;-70
2022/08/22 07:20:24;;;;;;;8.80;2.10;;;;;;;;;;6177443;23;20025;-70
2022/08/22 07:23:15;;;;;;;12.55;2.20;;;;;;;;;;6179865;23;20025;-69
2022/08/22 07:26:28;;;;;;;12.77;2.22;;;;;;;;;;6180293;23;20483;-69
2022/08/22 07:29:36;;;;;;;5.70;1.63;;;;;;;;;;6180383;23;20025;-69
2022/08/22 07:32:40;;;;;;;6.45;1.98;;;;;;;;;;6135242;23;20101;-69
2022/08/22 07:35:32;;;;;;;13.60;1.77;;;;;;;;;;6179917;23;20025;-61
2022/08/22 07:38:41;;;;;;;11.48;1.73;;;;;;;;;;6180526;23;20025;-56
2022/08/22 07:41:42;;;;;;;8.43;2.08;;;;;;;;;;6179488;23;20028;-56
2022/08/22 07:44:42;;;;;;;13.60;2.80;;;;;;;;;;6180363;23;20025;-56
2022/08/22 07:47:36;;;;;;;8.00;1.70;;;;;;;;;;6179361;23;20021;-54
2022/08/22 07:50:33;;;;;;;15.13;2.20;;;;;;;;;;6180808;23;20025;-54
2022/08/22 07:53:25;;;;;;;10.70;1.77;;;;;;;;;;6180484;23;20071;-54
2022/08/22 07:56:29;;;;;;;10.90;1.63;;;;;;;;;;6178804;23;20569;-69
2022/08/22 07:59:18;;;;;;;5.53;1.67;;;;;;;;;;6178992;23;20032;-55
2022/08/22 08:02:12;;;;;;;10.93;2.42;;;;;;;;;;6180684;23;20355;-51
2022/08/22 08:05:00;;;;;;;9.00;1.83;;;;;;;;;;6177651;23;20025;-55
2022/08/22 08:07:55;;;;;;;9.32;1.90;;;;;;;;;;6179322;23;20024;-52
2022/08/22 08:10:42;;;;;;;9.13;1.50;;;;;;;;;;6180994;23;20029;-54
2022/08/22 08:13:37;;;;;;;6.40;1.65;;;;;;;;;;6180388;23;20021;-56
2022/08/22 08:16:27;;;;;;;6.75;1.50;;;;;;;;;;6180668;23;20021;-51
2022/08/22 08:19:23;;;;;;;9.80;1.70;;;;;;;;;;6179904;23;20024;-52
2022/08/22 08:22:14;;;;;;;8.32;1.70;;;;;;;;;;6179128;23;20025;-54
2022/08/22 08:25:12;;;;;;;9.27;1.90;;;;;;;;;;6179646;23;20610;-52
2022/08/22 08:30:54;;;;;;;8.95;1.48;;;;;;;;;;6180353;23;20021;-53
2022/08/22 08:33:44;;;;;;;9.27;1.45;;;;;;;;;;6179826;23;20071;-54
2022/08/22 08:36:57;;;;;;;5.53;1.50;;;;;;;;;;6180369;23;20407;-57
2022/08/22 08:39:54;;;;;;;9.88;1.70;;;;;;;;;;6179048;23;20021;-53
2022/08/22 08:46:06;;;;;;;5.55;1.70;;;;;;;;;;6179784;23;20029;-57
2022/08/22 08:48:57;;;;;;;5.13;1.55;;;;;;;;;;6179869;23;20409;-57
2022/08/22 08:51:56;;;;;;;8.75;1.45;;;;;;;;;;6179702;23;20021;-59
2022/08/22 08:55:02;;;;;;;9.15;2.10;;;;;;;;;;6180580;23;20459;-58
2022/08/22 08:58:09;;;;;;;7.38;1.77;;;;;;;;;;6179904;23;20092;-57
2022/08/22 09:01:19;;;;;;;5.70;1.23;;;;;;;;;;6179536;23;20068;-56
2022/08/22 09:04:33;;;;;;;5.38;1.50;;;;;;;;;;6178250;23;20025;-57
2022/08/22 09:07:33;;;;;;;7.18;2.33;;;;;;;;;;6180023;23;20029;-58
2022/08/22 09:10:40;;;;;;;4.07;1.20;;;;;;;;;;6180305;23;20364;-59
2022/08/22 09:14:06;;;;;;;3.20;1.30;;;;;;;;;;6178541;23;20096;-57
2022/08/22 09:16:56;;;;;;;7.55;1.52;;;;;;;;;;6180444;23;20029;-56
2022/08/22 09:20:08;;;;;;;6.88;1.45;;;;;;;;;;6180170;23;20025;-56
2022/08/22 09:23:04;;;;;;;8.43;1.27;;;;;;;;;;6179464;23;20028;-56
2022/08/22 09:26:04;;;;;;;3.22;1.00;;;;;;;;;;6179809;23;20032;-54
2022/08/22 09:28:55;;;;;;;8.27;1.70;;;;;;;;;;6178632;23;20052;-59
2022/08/22 09:31:55;;;;;;;11.00;1.52;;;;;;;;;;6180123;23;20340;-60
2022/08/22 09:34:45;;;;;;;7.20;1.40;;;;;;;;;;6178441;23;20033;-61
2022/08/22 09:37:48;;;;;;;8.35;1.48;;;;;;;;;;6180012;23;20021;-61
2022/08/22 09:41:00;;;;;;;4.90;1.35;;;;;;;;;;6179388;23;20023;-61
2022/08/22 09:44:18;;;;;;;10.00;1.50;;;;;;;;;;6179217;23;20021;-61
2022/08/22 09:47:18;;;;;;;4.90;1.10;;;;;;;;;;6179888;23;20021;-61
2022/08/22 09:50:29;;;;;;;4.80;1.42;;;;;;;;;;6178381;23;20021;-61
2022/08/22 09:53:15;;;;;;;5.47;1.23;;;;;;;;;;6178863;23;20375;-60
2022/08/22 09:56:18;;;;;;;5.32;1.20;;;;;;;;;;6179583;23;20025;-60
2022/08/22 09:59:06;;;;;;;4.75;1.35;;;;;;;;;;6178309;23;20467;-59
2022/08/22 10:02:16;;;;;;;4.93;1.40;;;;;;;;;;6180454;23;20025;-59
2022/08/22 10:05:09;;;;;;;4.10;1.20;;;;;;;;;;6177984;23;20780;-59
2022/08/22 10:08:16;;;;;;;5.35;1.50;;;;;;;;;;6179913;23;20028;-60
2022/08/22 10:11:24;;;;;;;4.95;1.27;;;;;;;;;;6180470;23;20017;-58
2022/08/22 10:14:23;;;;;;;5.40;1.45;;;;;;;;;;6179398;23;20218;-58
2022/08/22 10:17:19;;;;;;;6.35;1.40;;;;;;;;;;6181458;23;20053;-58
2022/08/22 10:20:36;;;;;;;3.60;1.30;;;;;;;;;;6180723;23;20044;-57
2022/08/22 10:23:29;;;;;;;8.60;1.60;;;;;;;;;;6181193;23;20080;-57
2022/08/22 10:26:28;;;;;;;5.18;1.48;;;;;;;;;;6181716;23;20036;-54
2022/08/22 10:29:14;;;;;;;5.28;1.60;;;;;;;;;;6180022;23;20105;-56
2022/08/22 10:32:26;;;;;;;7.10;1.52;;;;;;;;;;6181192;23;20079;-69
2022/08/22 10:35:15;;;;;;;11.05;1.35;;;;;;;;;;6178678;23;20021;-69
2022/08/22 10:38:14;;;;;;;8.63;1.63;;;;;;;;;;6181059;23;20088;-69
2022/08/22 10:41:27;;;;;;;6.25;1.42;;;;;;;;;;6180377;23;20088;-68
2022/08/22 10:44:26;;;;;;;5.40;1.48;;;;;;;;;;6180292;23;20017;-55
2022/08/22 10:47:14;;;;;;;5.57;1.58;;;;;;;;;;6181785;23;20021;-59
2022/08/22 10:50:13;;;;;;;7.05;1.75;;;;;;;;;;6179947;23;20359;-68
2022/08/22 10:56:00;;;;;;;7.95;1.90;;;;;;;;;;6180486;23;20029;-68
2022/08/22 10:58:54;;;;;;;5.47;1.25;;;;;;;;;;6179845;23;20056;-68
2022/08/22 11:02:15;;;;;;;5.00;1.63;;;;;;;;;;6181788;23;20025;-68
2022/08/22 11:05:02;;;;;;;5.03;1.58;;;;;;;;;;6178501;23;20029;-61
2022/08/22 11:08:20;;;;;;;12.00;1.92;;;;;;;;;;6180931;23;20021;-52
2022/08/22 11:11:18;;;;;;;4.70;1.30;;;;;;;;;;6180955;23;20087;-54
2022/08/22 11:14:36;;;;;;;10.65;1.40;;;;;;;;;;6180652;23;20021;-52
2022/08/22 11:17:32;;;;;;;6.75;1.35;;;;;;;;;;6181041;23;20407;-53
2022/08/22 11:20:42;;;;;;;4.45;1.38;;;;;;;;;;6180384;23;20028;-51
2022/08/22 11:23:43;;;;;;;7.82;1.50;;;;;;;;;;6180705;23;20471;-58
2022/08/22 11:27:21;;;;;;;8.10;1.63;;;;;;;;;;6180221;23;20613;-60
2022/08/22 11:30:37;;;;;;;5.95;1.67;;;;;;;;;;6180055;23;20030;-59
2022/08/22 11:33:37;;;;;;;6.95;1.63;;;;;;;;;;6080615;23;20021;-59
2022/08/22 11:36:38;;;;;;;10.40;2.00;;;;;;;;;;6179663;23;20029;-59
2022/08/22 11:39:48;;;;;;;5.28;1.48;;;;;;;;;;6180350;23;20354;-59
2022/08/22 11:42:44;;;;;;;8.57;1.65;;;;;;;;;;6180522;23;20514;-60
2022/08/22 11:45:49;;;;;;;7.13;1.52;;;;;;;;;;6179909;23;20021;-59
2022/08/22 11:48:44;;;;;;;7.68;1.73;;;;;;;;;;6179246;23;20537;-59
2022/08/22 11:51:48;;;;;;;3.78;1.25;;;;;;;;;;6180695;23;20029;-59
2022/08/22 11:54:54;;;;;;;5.07;1.13;;;;;;;;;;6179156;23;20054;-59
2022/08/22 11:57:47;;;;;;;6.30;1.42;;;;;;;;;;6179410;23;20044;-59
2022/08/22 12:00:37;;;;;;;9.32;1.67;;;;;;;;;;6180592;23;20092;-59
2022/08/22 12:03:34;;;;;;;5.55;1.25;;;;;;;;;;6180845;23;20083;-54
2022/08/22 12:06:45;;;;;;;8.40;1.85;;;;;;;;;;6180575;23;20031;-60
2022/08/22 12:09:39;;;;;;;7.65;1.90;;;;;;;;;;6180286;23;20470;-56
2022/08/22 12:12:36;;;;;;;4.68;1.35;;;;;;;;;;6180407;23;20120;-60
2022/08/22 12:15:48;;;;;;;5.95;1.40;;;;;;;;;;6180039;23;20063;-59
2022/08/22 12:18:45;;;;;;;4.63;1.58;;;;;;;;;;6180454;23;20025;-59
2022/08/22 12:21:39;;;;;;;4.60;1.52;;;;;;;;;;6180604;23;20558;-68
2022/08/22 12:24:50;;;;;;;7.03;1.60;;;;;;;;;;6179890;23;20072;-54
2022/08/22 12:27:48;;;;;;;5.25;1.20;;;;;;;;;;6180275;23;20031;-52
2022/08/22 12:30:45;;;;;;;8.23;1.80;;;;;;;;;;6179586;23;20021;-54
2022/08/22 12:33:57;;;;;;;6.47;1.52;;;;;;;;;;6179879;23;20406;-55
2022/08/22 12:37:02;;;;;;;3.83;1.23;;;;;;;;;;6179758;23;20025;-52
2022/08/22 12:40:24;;;;;;;7.28;1.50;;;;;;;;;;6178217;23;20023;-59
2022/08/22 12:43:24;;;;;;;5.18;1.45;;;;;;;;;;6180158;23;20075;-54
2022/08/22 12:46:32;;;;;;;6.20;1.63;;;;;;;;;;6179753;23;20048;-54
2022/08/22 12:49:23;;;;;;;5.07;1.42;;;;;;;;;;6179760;23;20541;-56
2022/08/22 12:52:35;;;;;;;7.07;1.50;;;;;;;;;;6180441;23;20104;-53
2022/08/22 12:55:29;;;;;;;6.63;1.67;;;;;;;;;;6179018;23;20268;-55
2022/08/22 12:58:27;;;;;;;7.43;1.92;;;;;;;;;;6180653;23;20025;-55
2022/08/22 13:01:18;;;;;;;4.05;1.33;;;;;;;;;;6179871;23;20025;-59
2022/08/22 13:04:16;;;;;;;6.18;1.35;;;;;;;;;;6179501;23;20017;-59
2022/08/22 13:07:04;;;;;;;5.03;1.55;;;;;;;;;;6180106;23;20025;-59
2022/08/22 13:10:06;;;;;;;9.75;1.40;;;;;;;;;;6178738;23;20510;-58
2022/08/22 13:12:55;;;;;;;7.75;1.70;;;;;;;;;;6179931;23;20025;-59
2022/08/22 13:16:09;;;;;;;10.43;1.95;;;;;;;;;;6179088;23;20029;-58
2022/08/22 13:19:00;;;;;;;4.13;1.60;;;;;;;;;;6180011;23;20080;-59
2022/08/22 13:21:59;;;;;;;6.55;1.40;;;;;;;;;;6179121;23;20056;-54
2022/08/22 13:24:53;;;;;;;6.00;1.30;;;;;;;;;;6178505;23;20025;-56
2022/08/22 13:28:01;;;;;;;8.13;1.73;;;;;;;;;;6179084;23;20036;-55
2022/08/22 13:30:54;;;;;;;5.85;1.35;;;;;;;;;;6180155;23;20075;-53
2022/08/22 13:33:48;;;;;;;6.45;1.50;;;;;;;;;;6178780;23;20057;-53
2022/08/22 13:36:44;;;;;;;5.85;1.35;;;;;;;;;;6179415;23;20048;-59
2022/08/22 13:39:53;;;;;;;5.70;1.50;;;;;;;;;;6179098;23;20029;-55
2022/08/22 13:42:47;;;;;;;;;;;;;;;;;;6180556;23;20024;-49
2022/08/22 13:45:49;;;;;;;4.63;1.25;;;;;;;;;;6180439;23;19966;-52
2022/08/22 13:48:45;;;;;;;5.80;1.10;;;;;;;;;;6181214;23;20017;-53
2022/08/22 13:51:49;;;;;;;5.65;1.33;;;;;;;;;;6181500;23;20087;-51
2022/08/22 13:54:59;;;;;;;4.22;0.80;;;;;;;;;;6180794;23;20056;-59
2022/08/22 13:58:03;;;;;;;8.25;1.20;;;;;;;;;;6181591;23;20463;-60
2022/08/22 14:01:09;;;;;;;3.50;1.02;;;;;;;;;;6181051;23;20056;-55
2022/08/22 14:04:08;;;;;;;6.10;1.08;;;;;;;;;;6181014;23;20497;-52
2022/08/22 14:07:02;;;;;;;3.78;1.00;;;;;;;;;;6181325;23;20040;-50
2022/08/22 14:09:59;;;;;;;4.30;1.10;;;;;;;;;;6180971;23;20083;-51
2022/08/22 14:12:56;;;;;;;3.47;1.00;;;;;;;;;;6181454;23;20025;-50
2022/08/22 14:15:57;;;;;;;6.63;1.38;;;;;;;;;;6180935;23;20035;-56
2022/08/22 14:18:54;;;;;;;6.32;1.38;;;;;;;;;;6181504;23;20024;-52
2022/08/22 14:21:54;;;;;;;6.25;1.20;;;;;;;;;;6180743;23;20090;-56
2022/08/22 14:24:41;;;;;;;;;;;;;;;;;;6181996;23;20095;-55
2022/08/22 14:27:38;;;;;;;4.38;1.17;;;;;;;;;;6181010;23;19916;-56
2022/08/22 14:30:52;;;;;;;5.90;1.50;;;;;;;;;;6180769;23;20382;-56
2022/08/22 14:33:51;;;;;;;4.15;1.20;;;;;;;;;;6181308;23;20028;-56
2022/08/22 14:36:45;;;;;;;4.53;1.20;;;;;;;;;;6179725;23;20025;-54
2022/08/22 14:39:54;;;;;;;5.35;1.27;;;;;;;;;;6180338;23;20229;-59
2022/08/22 14:42:52;;;;;;;5.47;1.38;;;;;;;;;;6180558;23;20025;-58
2022/08/22 14:46:00;;;;;;;3.90;1.30;;;;;;;;;;6180544;23;20029;-57
2022/08/22 14:48:55;;;;;;;4.00;1.08;;;;;;;;;;6181078;23;20041;-58
2022/08/22 14:52:11;;;;;;;4.07;1.25;;;;;;;;;;6180798;23;20487;-58
2022/08/22 14:55:04;;;;;;;7.82;1.50;;;;;;;;;;6180751;23;20021;-64
2022/08/22 14:58:04;;;;;;;2.63;1.08;;;;;;;;;;6181080;23;20021;-52
2022/08/22 15:00:54;;;;;;;4.32;1.25;;;;;;;;;;6180162;23;20096;-51
2022/08/22 15:03:58;;;;;;;8.90;1.60;;;;;;;;;;6182269;23;20021;-51
2022/08/22 15:06:54;;;;;;;7.40;1.42;;;;;;;;;;6181557;23;20506;-54
2022/08/22 15:09:56;;;;;;;3.58;1.23;;;;;;;;;;6177056;23;20021;-56
2022/08/22 15:12:48;;;;;;;7.18;1.45;;;;;;;;;;6179923;23;20045;-52
2022/08/22 15:15:51;;;;;;;4.55;1.10;;;;;;;;;;6177946;23;20021;-65
2022/08/22 15:18:40;;;;;;;7.10;1.48;;;;;;;;;;6180891;23;20052;-65
2022/08/22 15:21:33;;;;;;;2.72;1.13;;;;;;;;;;6179937;23;20021;-64
2022/08/22 15:24:21;;;;;;;3.38;1.08;;;;;;;;;;6180415;23;20025;-65
2022/08/22 15:27:17;;;;;;;10.13;1.27;;;;;;;;;;6180190;23;20103;-64
2022/08/22 15:30:06;;;;;;;3.92;1.20;;;;;;;;;;6179964;23;20025;-61
2022/08/22 15:33:12;;;;;;;4.72;1.30;;;;;;;;;;6180479;23;20021;-51
2022/08/22 15:36:18;;;;;;;4.22;1.15;;;;;;;;;;6173691;23;20029;-56
2022/08/22 15:39:11;;;;;;;4.28;1.25;;;;;;;;;;6176922;23;20458;-56
2022/08/22 15:41:47;;;;;;;3.83;0.80;;;;;;;;;;6176386;23;20471;-56
2022/08/22 15:44:21;;;;;;;4.50;1.27;;;;;;;;;;6177786;23;20029;-53
2022/08/22 15:47:02;;;;;;;7.90;1.20;;;;;;;;;;6176177;23;20104;-57
2022/08/22 15:49:48;;;;;;;6.22;1.30;;;;;;;;;;6177448;23;20029;-54
2022/08/22 15:52:21;;;;;;;7.35;1.35;;;;;;;;;;6175285;23;20444;-59
2022/08/22 15:54:56;;;;;;;3.47;1.02;;;;;;;;;;6176542;23;20064;-57
2022/08/22 15:57:23;;;;;;;3.90;1.10;;;;;;;;;;6174598;23;20487;-57
2022/08/22 16:00:13;;;;;;;3.70;0.98;;;;;;;;;;6176307;23;20025;-57
2022/08/22 16:03:00;;;;;;;5.35;1.30;;;;;;;;;;6170822;23;20032;-56
2022/08/22 16:05:42;;;;;;;8.73;1.35;;;;;;;;;;6176109;23;20025;-57
2022/08/22 16:08:27;;;;;;;3.95;1.23;;;;;;;;;;6175953;23;20021;-54
2022/08/22 16:11:02;;;;;;;7.57;1.30;;;;;;;;;;6175750;23;20767;-53
2022/08/22 16:13:37;;;;;;;3.97;1.40;;;;;;;;;;6176795;23;20075;-55
2022/08/22 16:16:10;;;;;;;4.93;1.00;;;;;;;;;;6176161;23;20052;-51
2022/08/22 16:18:53;;;;;;;8.15;1.20;;;;;;;;;;6176604;23;20029;-50
2022/08/22 16:21:20;;;;;;;8.70;1.75;;;;;;;;;;6174661;23;20063;-51
2022/08/22 16:24:01;;;;;;;4.65;1.20;;;;;;;;;;6176489;23;20052;-52
2022/08/22 16:26:28;;;;;;;5.72;1.20;;;;;;;;;;6176853;23;20045;-56
2022/08/22 16:29:03;;;;;;;3.83;1.10;;;;;;;;;;6176376;23;20071;-60
2022/08/22 16:31:30;;;;;;;;;;;;;;;;;;6177590;23;20121;-52
2022/08/22 16:34:15;;;;;;;5.53;1.50;;;;;;;;;;6175783;23;19927;-55
2022/08/22 16:37:10;;;;;;;8.45;1.17;;;;;;;;;;6175259;23;20035;-55
2022/08/22 16:39:45;;;;;;;4.18;1.40;;;;;;;;;;6177010;23;20049;-53
2022/08/22 16:42:25;;;;;;;4.28;1.30;;;;;;;;;;6146481;23;20033;-54
2022/08/22 16:45:10;;;;;;;7.07;1.70;;;;;;;;;;6146098;23;20057;-51
2022/08/22 16:47:55;;;;;;;3.05;1.02;;;;;;;;;;6146896;23;20072;-57
2022/08/22 16:50:27;;;;;;;4.20;1.23;;;;;;;;;;6146099;23;20542;-50
2022/08/22 16:53:20;;;;;;;6.40;1.20;;;;;;;;;;6146177;23;20471;-52
2022/08/22 16:56:34;;;;;;;3.28;0.88;;;;;;;;;;6146603;23;20025;-47
2022/08/22 16:59:24;;;;;;;7.65;1.33;;;;;;;;;;6086029;23;20057;-52
2022/08/22 17:01:52;;;;;;;4.10;1.08;;;;;;;;;;6147272;23;20067;-52
2022/08/22 17:04:32;;;;;;;3.22;1.25;;;;;;;;;;6144014;23;20141;-53
2022/08/22 17:07:25;;;;;;;6.35;1.45;;;;;;;;;;6147071;23;20029;-54
2022/08/22 17:10:07;;;;;;;7.70;1.23;;;;;;;;;;6144482;23;20691;-51
2022/08/22 17:13:02;;;;;;;4.00;1.42;;;;;;;;;;6144606;23;20061;-53
2022/08/22 17:15:39;;;;;;;7.25;1.58;;;;;;;;;;6144468;23;20061;-52
2022/08/22 17:18:13;;;;;;;5.50;1.33;;;;;;;;;;6145762;23;20084;-55